Airfield :







YOU CAN JOIN US ON...

 
LOGIN :

Register | Disclaimer

   EN    FR    IT 

 









Legend :    VFR   Marginal VFR   IFR   Intensive IFR   Very Intensive IFR
Visi :
Ceiling :
>= 8 km
>= 3000ft
5 to 8 km
1000 to 3000 ft
1500m to 5 km
500 to 1000 ft
800 to 1500m
200 to 500 ft
< 800m
< 200 ft
Symbols :   Thunderstorms  Fog  Heavy snow  Heavy precipitations  Wind > 20 kt






- Airport Elevation : 244 ft
- IATA code : YQB


CYQB - Quebec - Jean Lesage Int.

CURRENT METAR :
  • 280409Z 08007G15KT 6SM SHRA BR BKN013 BKN025 OVC042 14/13 A2962 RMK SF6SC1SC1 CVCTV CLD EMBD SLP034 DENSITY ALT 500FT

EXPIRED METARs :
  • 280315Z 08014KT 6SM -SHRA BR SCT015 OVC045 14/13 A2965 RMK SF4SC4 CVCTV CLD EMBD SLP042 DENSITY ALT 600FT
  • 280257Z 08011KT 4SM -SHRA BR FEW012 SCT022 OVC060 14/13 A2966 RMK SF2SC2SC4 CVCTV CLD EMBD PRESFR SLP047 DENSITY ALT 500FT
  • 280245Z 08012G17KT 4SM SHRA BR FEW012 SCT022 BKN055 OVC080 14/13 A2968 RMK SF2SC2SC2AC2 CVCTV CLD EMBD SLP052 DENSITY ALT 500FT
  • 280200Z 10012KT 12SM -SHRA FEW012 BKN021 OVC100 15/13 A2971 RMK SF1SC6AC1 CVCTV CLD EMBD SLP063 DENSITY ALT 600FT
  • 280050Z 09011KT 15SM -SHRA FEW012 BKN022 OVC085 16/13 A2972 RMK SF1SC6AC1 VIS NE LWR CVCTV CLD EMBD SLP068 DENSITY ALT 600FT
  • 280100Z 08010KT 12SM -SHRA FEW012 BKN021 OVC085 15/13 A2972 RMK SF1SC6AC1 CVCTV CLD EMBD SLP068 DENSITY ALT 600FT
  • 280000Z 08013G22KT 30SM FEW012 BKN024 OVC077 16/13 A2974 RMK SF1SC6AC1 DIST SH ALQDS SLP073 DENSITY ALT 600FT

TAF TAF CYQB
Valid from the 28 at 00:00 until the 29 at 00:00 UTC


272340Z 2800/2824 07015G25KT P6SM BKN025 OVC080
TEMPO 2800/2801 FEW009 BKN020 OVC080
FM280100 09012G22KT 6SM -RA BR OVC025
TEMPO 2801/2805 4SM RA BR OVC015
PROB30 2801/2805 2SM RA BR BKN008 OVC020
FM280500 19008KT 6SM -RA OVC015
TEMPO 2805/2810 2SM RA BR OVC006
PROB30 2805/2810 1SM TSRA BKN006CB OVC015
FM281000 22012G22KT P6SM SCT015 BKN030
TEMPO 2810/2816 5SM -RA BR BKN015 OVC030
BECMG 2812/2814 23015G25KT
FM281600 23015G25KT P6SM -SHRA BKN040 RMK NXT FCST BY 280600Z
ATIS : ENG : +1 418-871-6893 FRA : +1 418-871-6895
CZUL FIR / North America



MET'MAP, your aeronautical weather chart ! - Copyright ORBIFLY December 2007 - Disclaimer

ORBIFLY MET'MAP TEAM :

Programming & Development : Alexandra Zaïnal
Original concept : Baudouin d'Aumeries
Technical & hardware support : Manuel Goepfert
Assistance : Marc-Olivier Méhu




SOURCES & CREDITS :

   NOAA